Time;durP1;ratioP1;P1;durP2;ratioP2;P2;SDS_P1;SDS_P2;PMS_P1;PMS_P2;Temp;Humidity;BMP_temperature;BMP_pressure;BME280_temperature;BME280_humidity;BME280_pressure;Samples;Min_cycle;Max_cycle;Signal;HPM_P1;HPM_P2
2021/10/23 00:02:11;;;;;;;8.85;5.35;;;15.40;96.70;;;;;;5064170;28;20064;-86
2021/10/23 00:04:40;;;;;;;8.90;6.25;;;15.40;96.70;;;;;;5082387;28;20044;-87
2021/10/23 00:07:09;;;;;;;5.85;4.53;;;15.30;96.70;;;;;;5079270;28;20500;-86
2021/10/23 00:09:37;;;;;;;7.28;6.05;;;15.20;96.70;;;;;;5099122;28;20133;-86
2021/10/23 00:12:06;;;;;;;7.95;5.88;;;15.20;96.70;;;;;;5083743;28;20047;-86
2021/10/23 00:14:35;;;;;;;7.30;5.45;;;15.20;96.70;;;;;;5082427;28;20498;-85
2021/10/23 00:17:03;;;;;;;7.03;5.57;;;15.20;96.70;;;;;;5081978;28;20070;-86
2021/10/23 00:19:31;;;;;;;7.93;5.13;;;15.20;96.70;;;;;;5082343;28;20140;-86
2021/10/23 00:22:01;;;;;;;7.72;5.22;;;15.20;96.70;;;;;;5086703;28;20101;-86
2021/10/23 00:24:29;;;;;;;8.98;5.25;;;15.30;96.70;;;;;;5093085;28;20047;-86
2021/10/23 00:26:57;;;;;;;6.05;5.20;;;15.30;96.70;;;;;;5080352;28;20131;-87
2021/10/23 00:29:25;;;;;;;8.85;5.68;;;15.30;96.70;;;;;;5076759;28;20036;-87
2021/10/23 00:31:53;;;;;;;7.60;5.47;;;15.20;96.70;;;;;;5075557;28;20041;-86
2021/10/23 00:34:21;;;;;;;7.60;5.28;;;15.10;96.70;;;;;;5081737;28;20054;-86
2021/10/23 00:36:49;;;;;;;9.45;5.38;;;15.00;96.70;;;;;;5085684;28;20085;-87
2021/10/23 00:39:19;;;;;;;7.65;5.45;;;15.00;96.70;;;;;;5101286;28;20129;-87
2021/10/23 00:41:47;;;;;;;7.75;5.30;;;15.10;96.70;;;;;;5102411;28;20067;-87
2021/10/23 00:44:33;;;;;;;8.50;5.20;;;15.00;96.70;;;;;;5102347;28;20142;-87
2021/10/23 00:47:03;;;;;;;7.45;5.50;;;15.10;96.70;;;;;;5100836;28;20043;-87
2021/10/23 00:49:32;;;;;;;5.93;4.72;;;15.10;96.70;;;;;;5084802;28;20050;-86
2021/10/23 00:52:02;;;;;;;6.78;4.78;;;15.00;96.70;;;;;;5101089;28;20044;-87
2021/10/23 00:54:33;;;;;;;7.72;5.43;;;14.90;96.70;;;;;;5084563;28;20584;-87
2021/10/23 00:57:03;;;;;;;6.82;4.53;;;14.90;96.70;;;;;;5087056;28;20062;-87
2021/10/23 00:59:32;;;;;;;5.57;4.50;;;14.80;96.70;;;;;;5100461;28;20126;-87
2021/10/23 01:02:00;;;;;;;5.90;4.85;;;14.80;96.70;;;;;;5101451;28;20042;-86
2021/10/23 01:04:29;;;;;;;6.75;5.00;;;14.80;96.70;;;;;;5089672;28;20493;-86
2021/10/23 01:06:58;;;;;;;5.30;4.63;;;14.90;96.70;;;;;;5085801;28;20048;-87
2021/10/23 01:09:26;;;;;;;8.40;4.93;;;14.80;96.70;;;;;;5098100;28;20055;-87
2021/10/23 01:11:56;;;;;;;6.30;5.00;;;14.80;96.70;;;;;;5101291;28;20047;-87
2021/10/23 01:14:25;;;;;;;8.30;5.90;;;14.80;96.70;;;;;;5100204;28;20047;-87
2021/10/23 01:16:55;;;;;;;8.10;5.57;;;14.80;96.70;;;;;;5094844;28;20050;-87
2021/10/23 01:19:23;;;;;;;7.05;6.03;;;14.90;96.70;;;;;;5099412;28;20043;-87
2021/10/23 01:21:53;;;;;;;10.13;6.75;;;14.80;96.70;;;;;;5102267;28;20047;-86
2021/10/23 01:24:23;;;;;;;10.57;7.82;;;14.80;96.70;;;;;;5100563;28;20334;-87
2021/10/23 01:26:52;;;;;;;11.38;8.05;;;14.80;96.70;;;;;;5101745;28;20040;-87
2021/10/23 01:29:21;;;;;;;10.60;8.15;;;14.80;96.70;;;;;;5098604;28;20039;-87
2021/10/23 01:31:51;;;;;;;9.38;7.88;;;14.80;96.70;;;;;;5103113;28;20093;-86
2021/10/23 01:34:21;;;;;;;9.38;7.50;;;14.70;96.70;;;;;;5075331;28;20060;-86
2021/10/23 01:36:53;;;;;;;9.10;6.95;;;14.80;96.70;;;;;;5101633;28;20051;-87
2021/10/23 01:39:23;;;;;;;11.32;7.50;;;14.80;96.70;;;;;;5100518;28;20346;-87
2021/10/23 01:41:51;;;;;;;10.77;7.22;;;14.80;96.70;;;;;;5081850;28;20096;-86
2021/10/23 01:44:25;;;;;;;9.23;7.13;;;14.70;96.70;;;;;;5101464;28;20521;-87
2021/10/23 01:46:53;;;;;;;9.85;6.80;;;14.70;96.70;;;;;;5116412;28;20121;-86
2021/10/23 01:49:22;;;;;;;8.23;5.68;;;14.60;96.70;;;;;;5101570;28;20610;-86
2021/10/23 01:51:50;;;;;;;6.72;6.03;;;14.60;96.70;;;;;;5098697;28;20113;-87
2021/10/23 01:54:20;;;;;;;7.05;5.90;;;14.60;96.70;;;;;;5100481;28;20077;-87
2021/10/23 01:56:48;;;;;;;9.10;6.07;;;14.60;96.70;;;;;;5100969;28;20082;-86
2021/10/23 01:59:16;;;;;;;7.10;5.70;;;14.60;96.70;;;;;;5101857;28;20052;-86
2021/10/23 02:01:44;;;;;;;8.02;5.63;;;14.40;96.70;;;;;;5100897;28;20062;-86
2021/10/23 02:04:12;;;;;;;7.75;5.30;;;14.30;96.70;;;;;;5103164;28;20044;-83
2021/10/23 02:06:41;;;;;;;6.13;5.10;;;14.30;96.70;;;;;;5098670;28;20035;-84
2021/10/23 02:09:09;;;;;;;6.93;5.78;;;14.30;96.70;;;;;;5083003;28;20043;-86
2021/10/23 02:11:39;;;;;;;7.85;5.80;;;14.30;96.70;;;;;;5101582;28;20040;-85
2021/10/23 02:14:07;;;;;;;9.05;6.28;;;14.30;96.70;;;;;;5083193;28;20055;-84
2021/10/23 02:16:35;;;;;;;7.07;5.65;;;14.30;96.70;;;;;;5103675;28;20489;-84
2021/10/23 02:19:03;;;;;;;9.10;6.20;;;14.20;96.70;;;;;;5100269;28;20051;-85
2021/10/23 02:21:31;;;;;;;7.03;5.88;;;14.20;96.70;;;;;;5104018;28;20039;-84
2021/10/23 02:24:00;;;;;;;6.82;5.88;;;14.20;96.70;;;;;;5098566;28;20046;-84
2021/10/23 02:26:27;;;;;;;6.47;5.80;;;14.10;96.70;;;;;;5092139;28;20386;-83
2021/10/23 02:28:57;;;;;;;6.72;5.50;;;14.10;96.70;;;;;;5105120;28;20044;-84
2021/10/23 02:31:30;;;;;;;8.82;6.70;;;14.10;96.70;;;;;;5087869;28;20047;-84
2021/10/23 02:33:59;;;;;;;11.45;6.32;;;14.10;96.70;;;;;;5104769;28;20131;-85
2021/10/23 02:36:27;;;;;;;9.85;7.30;;;14.00;96.70;;;;;;5079032;28;20083;-85
2021/10/23 02:38:55;;;;;;;8.98;7.13;;;14.00;96.70;;;;;;5082984;28;20101;-84
2021/10/23 02:41:25;;;;;;;10.13;6.88;;;14.10;96.70;;;;;;5084104;28;20054;-85
2021/10/23 02:43:53;;;;;;;9.45;7.28;;;14.10;96.70;;;;;;5102009;28;20118;-84
2021/10/23 02:46:23;;;;;;;8.13;6.95;;;14.10;96.70;;;;;;5085211;28;20063;-84
2021/10/23 02:48:51;;;;;;;8.60;7.20;;;14.20;96.70;;;;;;5099557;28;20044;-84
2021/10/23 02:51:19;;;;;;;9.35;7.15;;;14.20;96.70;;;;;;5067413;28;20405;-85
2021/10/23 02:53:47;;;;;;;10.18;7.32;;;14.30;96.70;;;;;;5080626;28;20044;-85
2021/10/23 02:56:15;;;;;;;9.30;7.30;;;14.20;96.70;;;;;;5099907;28;20500;-84
2021/10/23 02:58:43;;;;;;;8.95;6.85;;;14.20;96.70;;;;;;5085240;28;20043;-84
2021/10/23 03:01:11;;;;;;;8.65;7.15;;;14.20;96.70;;;;;;5083341;28;20098;-84
2021/10/23 03:03:41;;;;;;;8.45;6.60;;;14.10;96.70;;;;;;5076944;28;20044;-84
2021/10/23 03:06:09;;;;;;;8.52;6.88;;;14.10;96.70;;;;;;5100967;28;20113;-83
2021/10/23 03:08:38;;;;;;;8.68;7.30;;;14.00;96.70;;;;;;5099074;28;20390;-84
2021/10/23 03:11:06;;;;;;;11.38;7.10;;;14.10;96.70;;;;;;5069295;28;20047;-84
2021/10/23 03:13:34;;;;;;;9.32;7.90;;;14.10;96.70;;;;;;5083854;28;20048;-84
2021/10/23 03:16:03;;;;;;;8.27;7.07;;;14.10;96.70;;;;;;5081930;28;20039;-84
2021/10/23 03:18:31;;;;;;;9.23;7.85;;;14.10;96.70;;;;;;5064838;28;20040;-84
2021/10/23 03:21:01;;;;;;;9.35;7.90;;;14.10;96.70;;;;;;5082539;28;20335;-84
2021/10/23 03:23:29;;;;;;;9.55;7.43;;;14.00;96.70;;;;;;5098668;28;20048;-84
2021/10/23 03:25:57;;;;;;;11.73;8.48;;;14.00;96.70;;;;;;5083954;28;20425;-83
2021/10/23 03:28:25;;;;;;;9.05;7.82;;;14.00;96.70;;;;;;5101285;28;20397;-84
2021/10/23 03:30:53;;;;;;;11.80;8.30;;;13.90;96.70;;;;;;5087117;28;20036;-84
2021/10/23 03:33:21;;;;;;;8.32;7.40;;;13.90;96.70;;;;;;5080010;28;20050;-84
2021/10/23 03:35:49;;;;;;;12.27;7.80;;;13.80;96.70;;;;;;5082006;28;20047;-84
2021/10/23 03:38:20;;;;;;;8.10;7.07;;;13.80;96.70;;;;;;5073682;28;20059;-84
2021/10/23 03:40:48;;;;;;;9.77;7.28;;;13.80;96.70;;;;;;5083251;28;20063;-84
2021/10/23 03:43:16;;;;;;;7.47;6.65;;;13.80;96.70;;;;;;5078867;28;20045;-84
2021/10/23 03:45:44;;;;;;;7.90;7.10;;;13.70;96.70;;;;;;5081715;28;20045;-84
2021/10/23 03:48:18;;;;;;;7.00;6.30;;;13.80;96.70;;;;;;5081764;28;20047;-84
2021/10/23 03:50:46;;;;;;;7.50;6.65;;;13.80;96.70;;;;;;5085728;28;20037;-85
2021/10/23 03:53:15;;;;;;;7.32;6.00;;;13.70;96.70;;;;;;5082846;28;20089;-84
2021/10/23 03:55:44;;;;;;;8.35;6.72;;;13.80;96.70;;;;;;5097939;28;20764;-84
2021/10/23 03:58:12;;;;;;;7.88;6.60;;;13.80;96.70;;;;;;5065940;28;20777;-84
2021/10/23 04:00:40;;;;;;;7.22;5.47;;;13.90;96.70;;;;;;5083405;28;20170;-84
2021/10/23 04:03:08;;;;;;;7.50;5.20;;;13.80;96.70;;;;;;5067598;28;20052;-84
2021/10/23 04:05:37;;;;;;;7.65;5.28;;;13.80;96.70;;;;;;5084330;28;20040;-83
2021/10/23 04:08:05;;;;;;;6.40;5.30;;;13.70;96.70;;;;;;5097461;28;20066;-84
2021/10/23 04:10:34;;;;;;;6.15;5.07;;;13.70;96.70;;;;;;5060783;28;20067;-84
2021/10/23 04:13:03;;;;;;;5.80;5.10;;;13.70;96.70;;;;;;5078397;28;20028;-84
2021/10/23 04:15:33;;;;;;;5.78;5.20;;;13.80;96.70;;;;;;5076524;28;20081;-84
2021/10/23 04:18:02;;;;;;;5.32;4.82;;;13.80;96.70;;;;;;5082938;28;20048;-84
2021/10/23 04:20:30;;;;;;;5.45;4.85;;;13.80;96.70;;;;;;5082219;28;20405;-84
2021/10/23 04:22:58;;;;;;;6.47;5.10;;;13.80;96.70;;;;;;5083360;28;20063;-84
2021/10/23 04:25:26;;;;;;;5.95;5.03;;;13.70;96.70;;;;;;5082729;28;20044;-84
2021/10/23 04:27:55;;;;;;;6.13;5.43;;;13.70;96.70;;;;;;5092853;28;20063;-84
2021/10/23 04:30:25;;;;;;;5.88;5.20;;;13.70;96.70;;;;;;5082055;28;20515;-83
2021/10/23 04:32:54;;;;;;;6.13;4.90;;;13.70;96.70;;;;;;5096616;28;20071;-83
2021/10/23 04:35:22;;;;;;;5.57;4.90;;;13.60;96.70;;;;;;5097543;28;20033;-84
2021/10/23 04:37:50;;;;;;;5.65;5.07;;;13.50;96.70;;;;;;5108011;27;20040;-84
2021/10/23 04:40:19;;;;;;;5.05;4.55;;;13.40;96.70;;;;;;5101284;28;20496;-84
2021/10/23 04:42:47;;;;;;;5.20;4.70;;;13.40;96.70;;;;;;5102804;28;20496;-84
2021/10/23 04:45:15;;;;;;;5.75;4.78;;;13.40;96.70;;;;;;5102906;28;20154;-83
2021/10/23 04:47:45;;;;;;;6.55;4.43;;;13.40;96.70;;;;;;5101187;28;20050;-84
2021/10/23 04:50:13;;;;;;;4.47;4.07;;;13.40;96.70;;;;;;5101596;28;20085;-84
2021/10/23 04:52:41;;;;;;;5.15;4.22;;;13.50;96.70;;;;;;5102750;28;20114;-84
2021/10/23 04:55:09;;;;;;;5.85;4.63;;;13.40;96.70;;;;;;5099898;28;20043;-83
2021/10/23 04:57:38;;;;;;;5.18;4.68;;;13.30;96.70;;;;;;5100212;28;20031;-83
2021/10/23 05:00:07;;;;;;;5.00;4.50;;;13.20;96.70;;;;;;5101398;28;20035;-84
2021/10/23 05:02:35;;;;;;;7.03;4.53;;;13.20;96.70;;;;;;5095951;28;20293;-84
2021/10/23 05:05:06;;;;;;;8.98;4.85;;;13.20;96.70;;;;;;5084811;28;20142;-84
2021/10/23 05:07:34;;;;;;;6.72;4.88;;;13.10;96.70;;;;;;5113368;27;20044;-83
2021/10/23 05:10:03;;;;;;;5.38;4.80;;;13.10;96.70;;;;;;5098532;28;20055;-84
2021/10/23 05:12:31;;;;;;;6.80;4.90;;;13.10;96.70;;;;;;5081263;28;20044;-84
2021/10/23 05:14:59;;;;;;;5.32;4.82;;;13.10;96.70;;;;;;5074666;28;20078;-84
2021/10/23 05:17:28;;;;;;;5.43;4.50;;;13.20;96.70;;;;;;5101161;28;20055;-84
2021/10/23 05:19:56;;;;;;;6.63;5.05;;;13.20;96.70;;;;;;5100100;28;20047;-84
2021/10/23 05:22:25;;;;;;;6.70;4.95;;;13.20;96.70;;;;;;5102521;28;20039;-84
2021/10/23 05:24:54;;;;;;;5.88;4.53;;;13.10;96.70;;;;;;5101381;28;20055;-84
2021/10/23 05:27:22;;;;;;;7.15;4.82;;;13.10;96.70;;;;;;5101839;28;20043;-84
2021/10/23 05:29:50;;;;;;;5.20;4.20;;;13.00;96.70;;;;;;5083056;28;20504;-84
2021/10/23 05:32:19;;;;;;;4.97;4.25;;;13.00;96.70;;;;;;5102467;28;20063;-84
2021/10/23 05:34:48;;;;;;;4.82;3.63;;;13.00;96.70;;;;;;5101288;28;20044;-83
2021/10/23 05:37:16;;;;;;;4.75;4.35;;;13.10;96.70;;;;;;5100923;28;20551;-84
2021/10/23 05:39:46;;;;;;;4.80;4.35;;;13.10;96.70;;;;;;5100425;28;20046;-84
2021/10/23 05:42:14;;;;;;;6.72;4.78;;;13.00;96.70;;;;;;5092480;28;20079;-83
2021/10/23 05:44:43;;;;;;;5.13;4.63;;;12.90;96.70;;;;;;5102299;28;20039;-84
2021/10/23 05:47:11;;;;;;;4.22;3.83;;;12.90;96.70;;;;;;5081576;28;20476;-84
2021/10/23 05:49:40;;;;;;;3.90;3.60;;;12.90;96.70;;;;;;5086090;28;20040;-84
2021/10/23 05:52:08;;;;;;;4.13;3.72;;;13.00;96.70;;;;;;5082469;28;20048;-87
2021/10/23 05:54:37;;;;;;;3.72;3.40;;;12.90;96.70;;;;;;5118936;27;20040;-87
2021/10/23 05:57:08;;;;;;;3.50;3.20;;;12.80;96.70;;;;;;5121703;27;20043;-89
2021/10/23 05:59:41;;;;;;;3.92;3.60;;;12.80;96.70;;;;;;5083303;28;20068;-86
2021/10/23 06:02:26;;;;;;;3.75;3.42;;;12.80;96.70;;;;;;5102373;28;20111;-86
2021/10/23 06:04:55;;;;;;;4.18;3.20;;;12.90;96.70;;;;;;5100923;28;20130;-87
2021/10/23 06:07:26;;;;;;;4.95;3.67;;;12.90;96.70;;;;;;5102273;28;20040;-87
2021/10/23 06:09:57;;;;;;;6.10;4.38;;;13.00;96.70;;;;;;5109265;27;20034;-88
2021/10/23 06:12:27;;;;;;;4.93;4.10;;;13.00;96.70;;;;;;5104490;28;20058;-87
2021/10/23 06:14:55;;;;;;;8.48;5.25;;;13.10;96.70;;;;;;5094817;28;20273;-84
2021/10/23 06:17:24;;;;;;;6.35;5.32;;;13.00;96.70;;;;;;5103898;28;20043;-86
2021/10/23 06:19:52;;;;;;;4.90;4.40;;;13.00;96.70;;;;;;5087730;28;20039;-87
2021/10/23 06:22:20;;;;;;;6.00;4.35;;;13.00;96.70;;;;;;5102537;28;20048;-89
2021/10/23 06:24:49;;;;;;;8.13;5.13;;;13.10;96.70;;;;;;5103584;28;20047;-87
2021/10/23 06:27:17;;;;;;;6.78;5.30;;;13.10;96.70;;;;;;5101083;28;20042;-88
2021/10/23 06:29:47;;;;;;;7.75;5.80;;;13.10;96.70;;;;;;5104098;28;20047;-88
2021/10/23 06:32:15;;;;;;;6.93;5.13;;;13.20;96.70;;;;;;5085895;28;20051;-89
2021/10/23 06:34:43;;;;;;;6.75;5.05;;;13.10;96.70;;;;;;5088241;28;20047;-88
2021/10/23 06:37:12;;;;;;;6.55;5.28;;;13.10;96.70;;;;;;5112237;27;20835;-85
2021/10/23 06:39:40;;;;;;;8.32;5.63;;;13.20;96.70;;;;;;5121603;27;20061;-89
2021/10/23 06:42:08;;;;;;;8.07;4.85;;;13.30;96.70;;;;;;5101145;27;20080;-89
2021/10/23 06:44:37;;;;;;;8.10;5.90;;;13.40;96.70;;;;;;5107764;27;20556;-87
2021/10/23 06:47:06;;;;;;;8.70;6.28;;;13.30;96.70;;;;;;5105068;27;20352;-86
2021/10/23 06:49:34;;;;;;;6.20;4.93;;;13.30;96.70;;;;;;5090398;27;20047;-87
2021/10/23 06:52:03;;;;;;;7.97;5.50;;;13.50;96.70;;;;;;5092559;27;20043;-89
2021/10/23 06:54:31;;;;;;;7.22;5.10;;;13.50;96.70;;;;;;5108428;27;20555;-89
2021/10/23 06:57:00;;;;;;;8.05;4.72;;;13.50;96.70;;;;;;5095377;27;20048;-89
2021/10/23 06:59:49;;;;;;;5.40;3.95;;;13.50;96.70;;;;;;5123128;27;20073;-88
2021/10/23 07:02:19;;;;;;;5.25;4.53;;;13.60;96.70;;;;;;5107789;27;20412;-89
2021/10/23 07:04:47;;;;;;;4.93;4.43;;;13.70;96.70;;;;;;5104996;27;20050;-88
2021/10/23 07:07:16;;;;;;;4.65;4.25;;;13.60;96.70;;;;;;5126071;27;20130;-88
2021/10/23 07:09:44;;;;;;;5.35;4.28;;;13.70;96.70;;;;;;5092019;27;20043;-89
2021/10/23 07:12:12;;;;;;;4.25;3.65;;;13.70;96.70;;;;;;5119673;27;20043;-87
2021/10/23 07:14:40;;;;;;;4.63;4.20;;;13.70;96.70;;;;;;5127358;27;20130;-91
2021/10/23 07:17:08;;;;;;;4.30;3.90;;;13.70;96.70;;;;;;5109362;27;20481;-91
2021/10/23 07:19:38;;;;;;;5.13;4.00;;;13.60;96.70;;;;;;5093538;27;20719;-92
2021/10/23 07:22:06;;;;;;;4.10;3.80;;;13.60;96.70;;;;;;5093828;27;20046;-93
2021/10/23 07:24:34;;;;;;;5.05;3.65;;;13.70;96.70;;;;;;5092480;27;20054;-96
2021/10/23 07:27:03;;;;;;;3.85;3.55;;;13.80;96.70;;;;;;5109151;27;20577;-96
2021/10/23 07:29:31;;;;;;;4.95;3.85;;;13.90;96.70;;;;;;5108927;27;20046;-93
2021/10/23 07:31:59;;;;;;;4.00;3.60;;;13.90;96.70;;;;;;5098457;27;20528;-94
2021/10/23 07:34:29;;;;;;;5.60;4.00;;;14.00;96.70;;;;;;5084690;28;20043;-91
2021/10/23 07:36:58;;;;;;;4.75;4.28;;;14.10;96.70;;;;;;5121646;27;20055;-90
2021/10/23 07:39:27;;;;;;;4.75;4.35;;;14.10;96.70;;;;;;5107562;27;20084;-92
2021/10/23 07:41:55;;;;;;;5.80;4.45;;;14.20;96.70;;;;;;5089967;27;20047;-96
2021/10/23 07:44:23;;;;;;;4.85;4.30;;;14.30;96.70;;;;;;5107991;27;20396;-93
2021/10/23 07:46:51;;;;;;;6.30;5.28;;;14.30;96.70;;;;;;5093394;27;20943;-93
2021/10/23 07:49:20;;;;;;;6.03;5.43;;;14.30;96.70;;;;;;5083372;27;20047;-91
2021/10/23 07:51:48;;;;;;;6.95;4.70;;;14.50;96.70;;;;;;5107495;27;20505;-92
2021/10/23 07:54:18;;;;;;;6.18;5.45;;;14.60;96.70;;;;;;5109099;27;20039;-91
2021/10/23 07:56:46;;;;;;;7.65;5.53;;;14.70;96.70;;;;;;5098024;27;20039;-93
2021/10/23 07:59:15;;;;;;;6.15;5.55;;;14.80;96.70;;;;;;5100278;27;20055;-93
2021/10/23 08:01:43;;;;;;;6.90;6.07;;;14.90;96.70;;;;;;5106204;27;20053;-95
2021/10/23 08:04:11;;;;;;;7.50;5.80;;;15.00;96.70;;;;;;5120222;27;20054;-91
2021/10/23 08:06:40;;;;;;;8.85;6.53;;;15.10;96.70;;;;;;5106946;27;20039;-89
2021/10/23 08:09:12;;;;;;;8.77;6.20;;;15.20;96.70;;;;;;5094754;27;20121;-91
2021/10/23 08:11:43;;;;;;;7.20;5.93;;;15.30;96.70;;;;;;5100411;27;20036;-90
2021/10/23 08:14:12;;;;;;;7.30;6.40;;;15.40;96.70;;;;;;5105150;27;20047;-92
2021/10/23 08:16:41;;;;;;;7.20;6.13;;;15.50;96.70;;;;;;5106280;27;20094;-90
2021/10/23 08:19:09;;;;;;;7.82;7.05;;;15.60;96.70;;;;;;5124466;27;20039;-93
2021/10/23 08:21:39;;;;;;;9.15;7.25;;;15.70;96.70;;;;;;5111760;27;20070;-91
2021/10/23 08:24:07;;;;;;;8.32;6.85;;;15.70;96.70;;;;;;5087022;27;20058;-88
2021/10/23 08:26:36;;;;;;;8.82;6.95;;;15.80;96.70;;;;;;5089189;27;20054;-91
2021/10/23 08:29:06;;;;;;;8.55;7.65;;;15.80;96.70;;;;;;5101737;27;20042;-85
2021/10/23 08:31:34;;;;;;;12.25;8.05;;;15.90;96.70;;;;;;5100701;27;20039;-90
2021/10/23 08:34:03;;;;;;;9.25;8.27;;;16.00;96.70;;;;;;5109320;27;20108;-92
2021/10/23 08:36:32;;;;;;;11.57;8.38;;;16.10;96.70;;;;;;5101668;28;20051;-92
2021/10/23 08:39:00;;;;;;;10.52;8.32;;;16.20;96.70;;;;;;5101947;28;20088;-90
2021/10/23 08:41:29;;;;;;;10.27;8.40;;;16.30;96.70;;;;;;5101948;28;20595;-93
2021/10/23 08:44:01;;;;;;;11.55;9.43;;;16.40;96.70;;;;;;5088558;28;20040;-91
2021/10/23 08:46:35;;;;;;;12.30;9.00;;;16.50;96.70;;;;;;5095970;28;20039;-94
2021/10/23 08:49:04;;;;;;;9.95;8.77;;;16.60;96.70;;;;;;5098445;28;20052;-91
2021/10/23 08:51:33;;;;;;;10.02;9.02;;;16.70;96.70;;;;;;5105023;28;20040;-90
2021/10/23 08:54:02;;;;;;;12.88;9.25;;;16.70;96.70;;;;;;5102286;28;20035;-91
2021/10/23 08:56:34;;;;;;;10.63;9.52;;;16.90;96.70;;;;;;5099796;28;20047;-89
2021/10/23 08:59:02;;;;;;;9.75;8.60;;;17.00;96.70;;;;;;5102535;28;20031;-87
2021/10/23 09:01:32;;;;;;;9.07;8.18;;;17.10;96.70;;;;;;5099249;28;20066;-88
2021/10/23 09:04:00;;;;;;;9.65;8.25;;;17.20;96.70;;;;;;5117990;27;20111;-93
2021/10/23 09:06:30;;;;;;;10.77;8.13;;;17.20;96.70;;;;;;5100190;28;20044;-89
2021/10/23 09:09:05;;;;;;;8.93;7.82;;;17.30;96.70;;;;;;5102247;28;20035;-89
2021/10/23 09:11:37;;;;;;;10.32;8.00;;;17.40;96.70;;;;;;5115170;27;20085;-91
2021/10/23 09:14:27;;;;;;;9.02;7.25;;;17.60;96.70;;;;;;5103634;28;20046;-91
2021/10/23 09:17:02;;;;;;;8.82;7.93;;;17.70;96.70;;;;;;5120310;27;20067;-90
2021/10/23 09:19:39;;;;;;;7.80;7.00;;;17.80;96.70;;;;;;5104729;28;20043;-90
2021/10/23 09:22:22;;;;;;;9.35;7.82;;;17.90;96.70;;;;;;5102980;28;20101;-90
2021/10/23 09:25:08;;;;;;;;;;;18.00;96.70;;;;;;5082913;28;20047;-89
2021/10/23 09:27:48;;;;;;;9.90;7.60;;;18.20;96.70;;;;;;5091475;28;19957;-90
2021/10/23 09:30:18;;;;;;;9.52;7.18;;;18.30;96.70;;;;;;5087786;28;20058;-93
2021/10/23 09:32:53;;;;;;;8.80;6.68;;;18.50;96.70;;;;;;5103004;28;20047;-90
2021/10/23 09:35:23;;;;;;;7.20;5.10;;;18.60;96.70;;;;;;5103100;28;20039;-88
2021/10/23 09:37:58;;;;;;;6.13;4.10;;;18.70;96.70;;;;;;5087587;28;20047;-88
2021/10/23 09:40:29;;;;;;;7.47;4.28;;;18.70;96.70;;;;;;5073789;28;20058;-89
2021/10/23 09:43:13;;;;;;;4.93;2.78;;;18.90;96.70;;;;;;5100269;28;20068;-88
2021/10/23 09:46:10;;;;;;;3.35;2.78;;;19.00;96.70;;;;;;5100456;28;20066;-86
2021/10/23 09:48:42;;;;;;;4.10;2.38;;;19.20;96.70;;;;;;5102541;28;20048;-94
2021/10/23 09:51:18;;;;;;;3.60;2.10;;;19.30;96.70;;;;;;5104235;28;20051;-87
2021/10/23 09:53:48;;;;;;;2.77;1.90;;;19.50;96.70;;;;;;5123666;27;20048;-93
2021/10/23 09:56:20;;;;;;;3.38;2.13;;;19.60;96.70;;;;;;5099333;28;20360;-88
2021/10/23 09:58:53;;;;;;;2.35;1.70;;;19.60;96.70;;;;;;5102348;28;20520;-88
2021/10/23 10:01:25;;;;;;;2.92;2.40;;;19.70;96.70;;;;;;5085059;28;20107;-88
2021/10/23 10:03:56;;;;;;;1.75;1.60;;;19.80;96.70;;;;;;5100651;28;20054;-88
2021/10/23 10:06:26;;;;;;;2.45;1.88;;;19.80;96.70;;;;;;5102321;28;20039;-88
2021/10/23 10:08:55;;;;;;;2.08;1.60;;;19.90;96.70;;;;;;5075246;28;20047;-89
2021/10/23 10:11:23;;;;;;;8.52;2.00;;;19.90;96.70;;;;;;5080922;28;20039;-91
2021/10/23 10:13:52;;;;;;;3.45;1.50;;;20.00;96.70;;;;;;5084121;28;20044;-94
2021/10/23 10:16:21;;;;;;;2.53;1.77;;;20.10;96.70;;;;;;5084189;28;20061;-95
2021/10/23 10:18:50;;;;;;;3.15;1.40;;;20.10;96.70;;;;;;5080864;28;20564;-94
2021/10/23 10:21:21;;;;;;;2.65;1.65;;;20.20;96.70;;;;;;5100943;28;20055;-96
2021/10/23 10:23:52;;;;;;;3.63;1.95;;;20.40;96.70;;;;;;5081536;28;20139;-93
2021/10/23 10:26:29;;;;;;;3.53;1.83;;;20.50;96.70;;;;;;5095381;28;20044;-91
2021/10/23 10:29:34;;;;;;;3.30;1.80;;;20.40;96.70;;;;;;5098311;28;20035;-89
2021/10/23 10:32:15;;;;;;;4.25;1.65;;;20.70;96.70;;;;;;5018734;28;20198;-91
2021/10/23 10:35:12;;;;;;;2.25;1.63;;;20.90;96.70;;;;;;5092382;28;20134;-85
2021/10/23 10:43:18;;;;;;;5.95;3.28;;;20.90;96.70;;;;;;5083764;28;20069;-89
2021/10/23 10:45:57;;;;;;;5.07;2.03;;;20.90;96.70;;;;;;5081917;28;20149;-89
2021/10/23 10:48:40;;;;;;;2.10;1.58;;;21.20;96.70;;;;;;5098930;28;20048;-90
2021/10/23 10:51:20;;;;;;;3.42;1.90;;;21.30;96.70;;;;;;5067999;28;20338;-90
2021/10/23 10:54:09;;;;;;;2.70;1.60;;;21.30;96.70;;;;;;5079771;28;20134;-89
2021/10/23 10:56:43;;;;;;;2.72;1.88;;;21.40;96.70;;;;;;5082025;28;20052;-86
2021/10/23 10:59:11;;;;;;;4.70;2.38;;;21.40;96.70;;;;;;5083193;28;20134;-88
2021/10/23 11:01:39;;;;;;;4.18;1.45;;;21.40;96.70;;;;;;5070379;28;20535;-89
2021/10/23 11:04:10;;;;;;;1.88;1.55;;;21.30;96.70;;;;;;5065041;28;20044;-87
2021/10/23 11:06:53;;;;;;;3.25;1.27;;;21.30;96.70;;;;;;5069538;28;20051;-88
2021/10/23 11:09:44;;;;;;;3.17;1.30;;;21.40;96.70;;;;;;5078463;28;20048;-88
2021/10/23 11:12:20;;;;;;;2.22;1.55;;;21.50;96.70;;;;;;5080191;28;20081;-89
2021/10/23 11:14:48;;;;;;;2.53;1.30;;;21.40;96.70;;;;;;5085262;28;20087;-88
2021/10/23 11:17:18;;;;;;;1.77;1.30;;;21.70;96.70;;;;;;5077664;28;20102;-88
2021/10/23 11:19:49;;;;;;;1.95;1.08;;;21.90;96.70;;;;;;5079808;28;20036;-89
2021/10/23 11:22:20;;;;;;;2.53;1.50;;;22.00;96.70;;;;;;5068616;28;20093;-88
2021/10/23 11:24:51;;;;;;;4.15;1.00;;;22.00;96.70;;;;;;5086782;28;21323;-88
2021/10/23 11:27:35;;;;;;;1.52;1.23;;;22.00;96.70;;;;;;5062384;28;20056;-85
2021/10/23 11:30:22;;;;;;;1.65;1.20;;;22.30;96.70;;;;;;5083703;28;20046;-91
2021/10/23 11:32:54;;;;;;;2.78;1.50;;;22.20;96.70;;;;;;5086410;28;20062;-91
2021/10/23 11:35:34;;;;;;;3.20;1.30;;;22.20;96.70;;;;;;5086310;28;20042;-89
2021/10/23 11:38:04;;;;;;;2.67;1.40;;;22.30;96.70;;;;;;5110330;27;20512;-90
2021/10/23 11:40:35;;;;;;;2.28;1.20;;;22.30;96.70;;;;;;5094561;27;20502;-90
2021/10/23 11:43:04;;;;;;;6.70;4.28;;;22.50;96.70;;;;;;5106305;27;20039;-89
2021/10/23 11:45:33;;;;;;;3.67;2.42;;;22.70;96.70;;;;;;5106416;27;20035;-87
2021/10/23 11:48:04;;;;;;;1.83;1.45;;;22.60;96.70;;;;;;5107639;27;20058;-89
2021/10/23 11:50:34;;;;;;;1.42;0.95;;;22.60;96.70;;;;;;5125224;27;20150;-89
2021/10/23 11:53:04;;;;;;;3.45;1.40;;;22.90;96.70;;;;;;5106757;27;20468;-87
2021/10/23 11:55:37;;;;;;;1.90;1.13;;;23.10;96.70;;;;;;5124567;27;20103;-89
2021/10/23 11:58:07;;;;;;;3.35;1.40;;;23.30;96.70;;;;;;5101134;27;20035;-89
2021/10/23 12:00:37;;;;;;;2.75;1.30;;;23.30;96.70;;;;;;5091092;27;20115;-88
2021/10/23 12:03:08;;;;;;;2.75;1.48;;;23.30;96.70;;;;;;5105606;27;20042;-88
2021/10/23 12:05:42;;;;;;;2.38;1.10;;;23.40;96.70;;;;;;5100959;27;20054;-88
2021/10/23 12:08:16;;;;;;;2.25;1.40;;;23.40;96.70;;;;;;5085366;27;20047;-88
2021/10/23 12:11:17;;;;;;;1.50;1.25;;;23.30;96.70;;;;;;5098968;27;20035;-89
2021/10/23 12:14:03;;;;;;;2.10;1.38;;;23.20;96.70;;;;;;5090105;27;20142;-95
2021/10/23 12:16:40;;;;;;;2.03;1.33;;;23.20;96.70;;;;;;5104751;27;20096;-90
2021/10/23 12:19:16;;;;;;;1.67;1.20;;;23.40;96.70;;;;;;5105482;27;20051;-90
2021/10/23 12:21:47;;;;;;;1.30;1.17;;;23.60;96.70;;;;;;5103181;27;20043;-91
2021/10/23 12:24:19;;;;;;;2.83;1.25;;;23.80;96.70;;;;;;5103351;27;20122;-90
2021/10/23 12:27:24;;;;;;;1.92;1.20;;;23.90;96.70;;;;;;5100038;27;20570;-92
2021/10/23 12:29:55;;;;;;;2.05;1.00;;;23.90;96.70;;;;;;5106074;27;20433;-90
2021/10/23 12:32:35;;;;;;;1.95;1.38;;;23.90;96.70;;;;;;5124090;27;20035;-91
2021/10/23 12:35:06;;;;;;;1.70;1.20;;;23.90;96.70;;;;;;5115551;27;20039;-93
2021/10/23 12:37:51;;;;;;;1.83;1.02;;;24.00;96.70;;;;;;5101208;28;20047;-87
2021/10/23 12:40:28;;;;;;;1.90;1.50;;;24.00;96.70;;;;;;5097581;28;20052;-87
2021/10/23 12:43:03;;;;;;;2.33;1.45;;;23.80;96.70;;;;;;5088506;28;20179;-87
2021/10/23 12:45:33;;;;;;;1.30;1.10;;;24.00;96.70;;;;;;5077867;28;20043;-88
2021/10/23 12:48:04;;;;;;;1.10;1.00;;;24.00;96.70;;;;;;5087430;28;20227;-90
2021/10/23 12:50:34;;;;;;;4.65;1.88;;;24.10;96.70;;;;;;5102053;28;20552;-84
2021/10/23 12:53:03;;;;;;;6.97;4.30;;;24.10;96.70;;;;;;5088454;28;20069;-95
2021/10/23 12:55:32;;;;;;;11.27;9.93;;;24.00;96.70;;;;;;5085343;28;20051;-94
2021/10/23 12:58:02;;;;;;;4.25;2.22;;;24.20;96.70;;;;;;5103082;28;20233;-94
2021/10/23 13:00:31;;;;;;;4.55;1.88;;;24.20;96.70;;;;;;5086422;28;20056;-90
2021/10/23 13:02:59;;;;;;;1.63;1.40;;;24.30;96.70;;;;;;5103590;28;20174;-92
2021/10/23 13:05:29;;;;;;;3.05;1.65;;;24.20;96.70;;;;;;5099273;28;20054;-92
2021/10/23 13:07:57;;;;;;;1.48;1.27;;;24.10;96.70;;;;;;5079611;28;20040;-92
2021/10/23 13:10:25;;;;;;;2.47;1.50;;;24.10;96.70;;;;;;5102388;28;20031;-92